Terminal Aerodrome Forecast
Issued by NWS

Home | Current Version | Previous Version | Graphics & Text | Print | Product List | Glossary On
Versions: 1 2 3 4 5 6 7 8 9 10 11 12 13 14 15 16
000
FTUS43 KICT 252328
TAFHUT
TAF
KHUT 252328Z 2600/2624 01020G28KT P6SM -RA OVC050
     FM260200 01017G26KT P6SM BKN040 OVC100
     FM260900 36008KT P6SM SKC
     FM262000 23007KT P6SM SKC=

USA.gov is the U.S. government's official web portal to all federal, state and local government web resources and services.